sensor_id;sensor_type;location;lat;lon;timestamp;temperature;humidity
8593;DHT22;4334;49.982;8.398;2023-04-03T00:00:51;7.60;99.90
8593;DHT22;4334;49.982;8.398;2023-04-03T00:03:19;5.40;99.90
8593;DHT22;4334;49.982;8.398;2023-04-03T00:05:46;5.40;99.90
8593;DHT22;4334;49.982;8.398;2023-04-03T00:08:15;5.40;99.90
8593;DHT22;4334;49.982;8.398;2023-04-03T00:10:42;5.30;99.90
8593;DHT22;4334;49.982;8.398;2023-04-03T00:13:09;5.30;99.90
8593;DHT22;4334;49.982;8.398;2023-04-03T00:15:38;5.30;99.90
8593;DHT22;4334;49.982;8.398;2023-04-03T00:18:05;5.30;99.90
8593;DHT22;4334;49.982;8.398;2023-04-03T00:20:32;5.30;99.90
8593;DHT22;4334;49.982;8.398;2023-04-03T00:23:00;5.30;99.90
8593;DHT22;4334;49.982;8.398;2023-04-03T00:25:28;5.30;99.90
8593;DHT22;4334;49.982;8.398;2023-04-03T00:27:55;5.30;99.90
8593;DHT22;4334;49.982;8.398;2023-04-03T00:30:22;5.40;99.90
8593;DHT22;4334;49.982;8.398;2023-04-03T00:32:50;5.30;99.90
8593;DHT22;4334;49.982;8.398;2023-04-03T00:35:18;5.30;99.90
8593;DHT22;4334;49.982;8.398;2023-04-03T00:37:46;5.40;99.90
8593;DHT22;4334;49.982;8.398;2023-04-03T00:40:14;5.30;99.90
8593;DHT22;4334;49.982;8.398;2023-04-03T00:42:45;5.30;99.90
8593;DHT22;4334;49.982;8.398;2023-04-03T00:45:32;5.40;99.90
8593;DHT22;4334;49.982;8.398;2023-04-03T00:48:00;5.40;99.90
8593;DHT22;4334;49.982;8.398;2023-04-03T00:50:29;5.40;99.90
8593;DHT22;4334;49.982;8.398;2023-04-03T00:52:56;5.40;99.90
8593;DHT22;4334;49.982;8.398;2023-04-03T00:55:24;5.50;99.90
8593;DHT22;4334;49.982;8.398;2023-04-03T00:57:53;5.40;99.90
8593;DHT22;4334;49.982;8.398;2023-04-03T01:00:22;5.40;99.90
8593;DHT22;4334;49.982;8.398;2023-04-03T01:02:50;5.50;99.90
8593;DHT22;4334;49.982;8.398;2023-04-03T01:05:18;6.90;99.90
8593;DHT22;4334;49.982;8.398;2023-04-03T01:07:47;5.40;99.90
8593;DHT22;4334;49.982;8.398;2023-04-03T01:10:15;5.50;99.90
8593;DHT22;4334;49.982;8.398;2023-04-03T01:12:46;5.50;99.90
8593;DHT22;4334;49.982;8.398;2023-04-03T01:15:17;5.50;99.90
8593;DHT22;4334;49.982;8.398;2023-04-03T01:17:45;5.50;99.90
8593;DHT22;4334;49.982;8.398;2023-04-03T01:23:48;5.50;99.90
8593;DHT22;4334;49.982;8.398;2023-04-03T01:26:19;5.50;99.90
8593;DHT22;4334;49.982;8.398;2023-04-03T01:28:46;8.70;99.90
8593;DHT22;4334;49.982;8.398;2023-04-03T01:31:21;5.50;99.90
8593;DHT22;4334;49.982;8.398;2023-04-03T01:33:50;5.60;99.90
8593;DHT22;4334;49.982;8.398;2023-04-03T01:36:20;5.50;99.90
8593;DHT22;4334;49.982;8.398;2023-04-03T01:38:47;5.50;99.90
8593;DHT22;4334;49.982;8.398;2023-04-03T01:41:15;8.40;99.90
8593;DHT22;4334;49.982;8.398;2023-04-03T01:43:42;5.50;99.90
8593;DHT22;4334;49.982;8.398;2023-04-03T01:46:09;5.40;99.90
8593;DHT22;4334;49.982;8.398;2023-04-03T01:48:36;5.50;99.90
8593;DHT22;4334;49.982;8.398;2023-04-03T01:51:04;5.50;99.90
8593;DHT22;4334;49.982;8.398;2023-04-03T01:53:31;5.50;99.90
8593;DHT22;4334;49.982;8.398;2023-04-03T01:55:58;5.50;99.90
8593;DHT22;4334;49.982;8.398;2023-04-03T01:58:25;5.50;99.90
8593;DHT22;4334;49.982;8.398;2023-04-03T02:00:52;5.50;99.90
8593;DHT22;4334;49.982;8.398;2023-04-03T02:03:19;5.50;99.90
8593;DHT22;4334;49.982;8.398;2023-04-03T02:05:46;5.50;99.90
8593;DHT22;4334;49.982;8.398;2023-04-03T02:08:15;8.20;99.90
8593;DHT22;4334;49.982;8.398;2023-04-03T02:10:43;5.50;99.90
8593;DHT22;4334;49.982;8.398;2023-04-03T02:13:10;5.50;99.90
8593;DHT22;4334;49.982;8.398;2023-04-03T02:15:37;5.40;99.90
8593;DHT22;4334;49.982;8.398;2023-04-03T02:18:04;6.30;99.90
8593;DHT22;4334;49.982;8.398;2023-04-03T02:20:32;5.40;99.90
8593;DHT22;4334;49.982;8.398;2023-04-03T02:22:59;5.40;99.90
8593;DHT22;4334;49.982;8.398;2023-04-03T02:25:27;5.50;99.90
8593;DHT22;4334;49.982;8.398;2023-04-03T02:27:54;5.50;99.90
8593;DHT22;4334;49.982;8.398;2023-04-03T02:30:21;5.50;99.90
8593;DHT22;4334;49.982;8.398;2023-04-03T02:32:48;5.50;99.90
8593;DHT22;4334;49.982;8.398;2023-04-03T02:35:15;5.50;99.90
8593;DHT22;4334;49.982;8.398;2023-04-03T02:37:42;9.00;99.90
8593;DHT22;4334;49.982;8.398;2023-04-03T02:40:09;5.50;99.90
8593;DHT22;4334;49.982;8.398;2023-04-03T02:42:38;5.50;99.90
8593;DHT22;4334;49.982;8.398;2023-04-03T02:45:06;5.50;99.90
8593;DHT22;4334;49.982;8.398;2023-04-03T02:47:33;6.50;99.90
8593;DHT22;4334;49.982;8.398;2023-04-03T02:50:00;5.30;99.90
8593;DHT22;4334;49.982;8.398;2023-04-03T02:52:27;5.70;99.90
8593;DHT22;4334;49.982;8.398;2023-04-03T02:54:54;5.40;99.90
8593;DHT22;4334;49.982;8.398;2023-04-03T02:57:21;5.40;99.90
8593;DHT22;4334;49.982;8.398;2023-04-03T02:59:49;5.40;99.90
8593;DHT22;4334;49.982;8.398;2023-04-03T03:02:16;5.20;99.90
8593;DHT22;4334;49.982;8.398;2023-04-03T03:04:43;5.40;99.90
8593;DHT22;4334;49.982;8.398;2023-04-03T03:07:10;5.30;99.90
8593;DHT22;4334;49.982;8.398;2023-04-03T03:09:38;5.30;99.90
8593;DHT22;4334;49.982;8.398;2023-04-03T03:12:05;5.30;99.90
8593;DHT22;4334;49.982;8.398;2023-04-03T03:14:32;5.30;99.90
8593;DHT22;4334;49.982;8.398;2023-04-03T03:17:00;5.30;99.90
8593;DHT22;4334;49.982;8.398;2023-04-03T03:19:27;5.20;99.90
8593;DHT22;4334;49.982;8.398;2023-04-03T03:21:53;5.20;99.90
8593;DHT22;4334;49.982;8.398;2023-04-03T03:24:20;5.20;99.90
8593;DHT22;4334;49.982;8.398;2023-04-03T03:26:47;5.20;99.90
8593;DHT22;4334;49.982;8.398;2023-04-03T03:29:14;5.20;99.90
8593;DHT22;4334;49.982;8.398;2023-04-03T03:31:40;5.10;99.90
8593;DHT22;4334;49.982;8.398;2023-04-03T03:34:09;5.20;99.90
8593;DHT22;4334;49.982;8.398;2023-04-03T03:36:36;5.10;99.90
8593;DHT22;4334;49.982;8.398;2023-04-03T03:39:03;5.20;99.90
8593;DHT22;4334;49.982;8.398;2023-04-03T03:41:29;5.10;99.90
8593;DHT22;4334;49.982;8.398;2023-04-03T03:43:56;5.10;99.90
8593;DHT22;4334;49.982;8.398;2023-04-03T03:46:23;5.00;99.90
8593;DHT22;4334;49.982;8.398;2023-04-03T03:48:50;5.00;99.90
8593;DHT22;4334;49.982;8.398;2023-04-03T03:51:18;5.10;99.90
8593;DHT22;4334;49.982;8.398;2023-04-03T03:53:45;5.10;99.90
8593;DHT22;4334;49.982;8.398;2023-04-03T03:56:12;5.00;99.90
8593;DHT22;4334;49.982;8.398;2023-04-03T03:58:39;5.00;99.90
8593;DHT22;4334;49.982;8.398;2023-04-03T04:01:07;5.00;99.90
8593;DHT22;4334;49.982;8.398;2023-04-03T04:03:34;4.90;99.90
8593;DHT22;4334;49.982;8.398;2023-04-03T04:06:01;4.90;99.90
8593;DHT22;4334;49.982;8.398;2023-04-03T04:08:29;5.10;99.90
8593;DHT22;4334;49.982;8.398;2023-04-03T04:10:56;4.90;99.90
8593;DHT22;4334;49.982;8.398;2023-04-03T04:13:23;4.90;99.90
8593;DHT22;4334;49.982;8.398;2023-04-03T04:15:50;4.80;99.90
8593;DHT22;4334;49.982;8.398;2023-04-03T04:18:17;4.80;99.90
8593;DHT22;4334;49.982;8.398;2023-04-03T04:20:46;4.70;99.90
8593;DHT22;4334;49.982;8.398;2023-04-03T04:23:12;4.70;99.90
8593;DHT22;4334;49.982;8.398;2023-04-03T04:25:40;4.70;99.90
8593;DHT22;4334;49.982;8.398;2023-04-03T04:28:07;4.60;99.90
8593;DHT22;4334;49.982;8.398;2023-04-03T04:30:34;4.50;99.90
8593;DHT22;4334;49.982;8.398;2023-04-03T04:33:01;4.60;99.90
8593;DHT22;4334;49.982;8.398;2023-04-03T04:35:28;4.50;99.90
8593;DHT22;4334;49.982;8.398;2023-04-03T04:37:55;4.50;99.90
8593;DHT22;4334;49.982;8.398;2023-04-03T04:40:22;4.40;99.90
8593;DHT22;4334;49.982;8.398;2023-04-03T04:42:50;4.40;99.90
8593;DHT22;4334;49.982;8.398;2023-04-03T04:45:17;4.40;99.90
8593;DHT22;4334;49.982;8.398;2023-04-03T04:47:44;4.30;99.90
8593;DHT22;4334;49.982;8.398;2023-04-03T04:50:11;4.30;99.90
8593;DHT22;4334;49.982;8.398;2023-04-03T04:52:38;4.30;99.90
8593;DHT22;4334;49.982;8.398;2023-04-03T04:55:06;8.60;99.90
8593;DHT22;4334;49.982;8.398;2023-04-03T04:57:33;4.10;99.90
8593;DHT22;4334;49.982;8.398;2023-04-03T05:00:03;4.00;99.90
8593;DHT22;4334;49.982;8.398;2023-04-03T05:02:30;4.00;99.90
8593;DHT22;4334;49.982;8.398;2023-04-03T05:04:57;3.90;99.90
8593;DHT22;4334;49.982;8.398;2023-04-03T05:07:24;3.90;99.90
8593;DHT22;4334;49.982;8.398;2023-04-03T05:09:51;3.90;99.90
8593;DHT22;4334;49.982;8.398;2023-04-03T05:12:18;3.90;99.90
8593;DHT22;4334;49.982;8.398;2023-04-03T05:14:44;3.80;99.90
8593;DHT22;4334;49.982;8.398;2023-04-03T05:17:12;3.80;99.90
8593;DHT22;4334;49.982;8.398;2023-04-03T05:19:39;3.80;99.90
8593;DHT22;4334;49.982;8.398;2023-04-03T05:22:06;3.70;99.90
8593;DHT22;4334;49.982;8.398;2023-04-03T05:24:33;3.70;99.90
8593;DHT22;4334;49.982;8.398;2023-04-03T05:27:00;3.70;99.90
8593;DHT22;4334;49.982;8.398;2023-04-03T05:29:27;3.80;99.90
8593;DHT22;4334;49.982;8.398;2023-04-03T05:31:54;3.80;99.90
8593;DHT22;4334;49.982;8.398;2023-04-03T05:34:22;3.70;99.90
8593;DHT22;4334;49.982;8.398;2023-04-03T05:36:49;3.70;99.90
8593;DHT22;4334;49.982;8.398;2023-04-03T05:39:15;3.70;99.90
8593;DHT22;4334;49.982;8.398;2023-04-03T05:41:42;3.70;99.90
8593;DHT22;4334;49.982;8.398;2023-04-03T05:44:09;3.80;99.90
8593;DHT22;4334;49.982;8.398;2023-04-03T05:46:36;3.90;99.90
8593;DHT22;4334;49.982;8.398;2023-04-03T05:49:03;3.90;99.90
8593;DHT22;4334;49.982;8.398;2023-04-03T05:51:34;3.90;99.90
8593;DHT22;4334;49.982;8.398;2023-04-03T05:54:06;4.10;99.90
8593;DHT22;4334;49.982;8.398;2023-04-03T05:56:34;4.30;99.90
8593;DHT22;4334;49.982;8.398;2023-04-03T05:59:01;4.60;99.90
8593;DHT22;4334;49.982;8.398;2023-04-03T06:01:28;4.60;99.90
8593;DHT22;4334;49.982;8.398;2023-04-03T06:03:55;4.50;99.90
8593;DHT22;4334;49.982;8.398;2023-04-03T06:06:24;4.30;99.90
8593;DHT22;4334;49.982;8.398;2023-04-03T06:08:52;4.20;99.90
8593;DHT22;4334;49.982;8.398;2023-04-03T06:11:19;4.20;99.90
8593;DHT22;4334;49.982;8.398;2023-04-03T06:13:47;2.70;99.90
8593;DHT22;4334;49.982;8.398;2023-04-03T06:16:15;4.80;99.90
8593;DHT22;4334;49.982;8.398;2023-04-03T06:18:43;4.80;99.90
8593;DHT22;4334;49.982;8.398;2023-04-03T06:21:10;5.30;99.90
8593;DHT22;4334;49.982;8.398;2023-04-03T06:23:37;5.70;99.90
8593;DHT22;4334;49.982;8.398;2023-04-03T06:26:05;6.20;99.90
8593;DHT22;4334;49.982;8.398;2023-04-03T06:28:32;6.00;99.90
8593;DHT22;4334;49.982;8.398;2023-04-03T06:30:59;5.60;99.90
8593;DHT22;4334;49.982;8.398;2023-04-03T06:33:26;5.90;99.90
8593;DHT22;4334;49.982;8.398;2023-04-03T06:35:57;5.90;99.90
8593;DHT22;4334;49.982;8.398;2023-04-03T06:38:24;6.00;99.90
8593;DHT22;4334;49.982;8.398;2023-04-03T06:40:51;6.00;99.90
8593;DHT22;4334;49.982;8.398;2023-04-03T06:43:20;6.00;99.90
8593;DHT22;4334;49.982;8.398;2023-04-03T06:45:47;6.20;99.90
8593;DHT22;4334;49.982;8.398;2023-04-03T06:48:14;5.90;99.90
8593;DHT22;4334;49.982;8.398;2023-04-03T06:50:41;6.10;99.90
8593;DHT22;4334;49.982;8.398;2023-04-03T06:53:08;6.30;99.90
8593;DHT22;4334;49.982;8.398;2023-04-03T06:55:35;6.10;99.90
8593;DHT22;4334;49.982;8.398;2023-04-03T06:58:03;8.60;99.90
8593;DHT22;4334;49.982;8.398;2023-04-03T07:00:31;6.60;99.90
8593;DHT22;4334;49.982;8.398;2023-04-03T07:02:58;6.60;99.90
8593;DHT22;4334;49.982;8.398;2023-04-03T07:05:25;7.00;99.90
8593;DHT22;4334;49.982;8.398;2023-04-03T07:07:53;7.10;99.90
8593;DHT22;4334;49.982;8.398;2023-04-03T07:10:21;7.60;99.90
8593;DHT22;4334;49.982;8.398;2023-04-03T07:12:48;7.20;99.90
8593;DHT22;4334;49.982;8.398;2023-04-03T07:15:15;7.20;99.90
8593;DHT22;4334;49.982;8.398;2023-04-03T07:17:43;7.40;99.90
8593;DHT22;4334;49.982;8.398;2023-04-03T07:20:11;7.50;99.90
8593;DHT22;4334;49.982;8.398;2023-04-03T07:22:38;7.10;99.90
8593;DHT22;4334;49.982;8.398;2023-04-03T07:25:06;6.70;99.90
8593;DHT22;4334;49.982;8.398;2023-04-03T07:27:34;6.80;99.90
8593;DHT22;4334;49.982;8.398;2023-04-03T07:30:01;6.80;99.90
8593;DHT22;4334;49.982;8.398;2023-04-03T07:32:29;7.10;99.90
8593;DHT22;4334;49.982;8.398;2023-04-03T07:34:57;7.30;99.90
8593;DHT22;4334;49.982;8.398;2023-04-03T07:37:24;9.60;99.90
8593;DHT22;4334;49.982;8.398;2023-04-03T07:39:52;6.50;99.90
8593;DHT22;4334;49.982;8.398;2023-04-03T07:42:18;8.70;99.90
8593;DHT22;4334;49.982;8.398;2023-04-03T07:44:46;6.70;99.90
8593;DHT22;4334;49.982;8.398;2023-04-03T07:47:13;6.10;99.90
8593;DHT22;4334;49.982;8.398;2023-04-03T07:49:41;5.90;99.90
8593;DHT22;4334;49.982;8.398;2023-04-03T07:52:10;6.30;99.90
8593;DHT22;4334;49.982;8.398;2023-04-03T07:54:37;6.10;99.90
8593;DHT22;4334;49.982;8.398;2023-04-03T07:57:04;6.10;99.90
8593;DHT22;4334;49.982;8.398;2023-04-03T07:59:32;6.40;99.90
8593;DHT22;4334;49.982;8.398;2023-04-03T08:01:59;6.30;99.90
8593;DHT22;4334;49.982;8.398;2023-04-03T08:04:26;6.10;99.90
8593;DHT22;4334;49.982;8.398;2023-04-03T08:06:53;6.00;99.90
8593;DHT22;4334;49.982;8.398;2023-04-03T08:09:21;6.50;99.90
8593;DHT22;4334;49.982;8.398;2023-04-03T08:11:48;7.30;99.90
8593;DHT22;4334;49.982;8.398;2023-04-03T08:14:18;6.90;99.90
8593;DHT22;4334;49.982;8.398;2023-04-03T08:16:46;10.10;99.90
8593;DHT22;4334;49.982;8.398;2023-04-03T08:19:13;7.50;99.90
8593;DHT22;4334;49.982;8.398;2023-04-03T08:21:41;8.20;99.90
8593;DHT22;4334;49.982;8.398;2023-04-03T08:24:09;8.00;99.90
8593;DHT22;4334;49.982;8.398;2023-04-03T08:26:37;7.60;99.90
8593;DHT22;4334;49.982;8.398;2023-04-03T08:29:04;11.70;99.90
8593;DHT22;4334;49.982;8.398;2023-04-03T08:31:31;8.30;99.90
8593;DHT22;4334;49.982;8.398;2023-04-03T08:33:58;7.30;99.90
8593;DHT22;4334;49.982;8.398;2023-04-03T08:36:26;7.30;99.90
8593;DHT22;4334;49.982;8.398;2023-04-03T08:38:54;7.50;99.90
8593;DHT22;4334;49.982;8.398;2023-04-03T08:41:29;10.50;99.90
8593;DHT22;4334;49.982;8.398;2023-04-03T08:44:09;7.60;99.90
8593;DHT22;4334;49.982;8.398;2023-04-03T08:47:02;7.40;99.90
8593;DHT22;4334;49.982;8.398;2023-04-03T08:49:33;7.60;99.90
8593;DHT22;4334;49.982;8.398;2023-04-03T08:52:04;11.40;99.90
8593;DHT22;4334;49.982;8.398;2023-04-03T08:54:37;8.20;99.90
8593;DHT22;4334;49.982;8.398;2023-04-03T08:57:10;8.00;99.90
8593;DHT22;4334;49.982;8.398;2023-04-03T08:59:39;7.30;99.90
8593;DHT22;4334;49.982;8.398;2023-04-03T09:02:21;7.50;99.90
8593;DHT22;4334;49.982;8.398;2023-04-03T09:04:50;7.50;99.90
8593;DHT22;4334;49.982;8.398;2023-04-03T09:07:22;7.20;99.90
8593;DHT22;4334;49.982;8.398;2023-04-03T09:09:52;6.70;99.90
8593;DHT22;4334;49.982;8.398;2023-04-03T09:12:23;7.60;99.90
8593;DHT22;4334;49.982;8.398;2023-04-03T09:14:59;8.10;99.90
8593;DHT22;4334;49.982;8.398;2023-04-03T09:17:35;8.30;99.90
8593;DHT22;4334;49.982;8.398;2023-04-03T09:20:12;7.30;99.90
8593;DHT22;4334;49.982;8.398;2023-04-03T09:22:43;6.60;99.90
8593;DHT22;4334;49.982;8.398;2023-04-03T09:25:14;6.80;99.90
8593;DHT22;4334;49.982;8.398;2023-04-03T09:27:42;7.20;99.90
8593;DHT22;4334;49.982;8.398;2023-04-03T09:30:15;6.90;99.90
8593;DHT22;4334;49.982;8.398;2023-04-03T09:32:44;7.50;99.90
8593;DHT22;4334;49.982;8.398;2023-04-03T09:35:19;7.40;99.90
8593;DHT22;4334;49.982;8.398;2023-04-03T09:37:49;7.40;99.90
8593;DHT22;4334;49.982;8.398;2023-04-03T09:40:34;7.30;99.90
8593;DHT22;4334;49.982;8.398;2023-04-03T09:43:08;7.90;99.90
8593;DHT22;4334;49.982;8.398;2023-04-03T09:45:48;7.40;99.90
8593;DHT22;4334;49.982;8.398;2023-04-03T09:48:17;7.80;99.90
8593;DHT22;4334;49.982;8.398;2023-04-03T09:50:59;7.50;99.90
8593;DHT22;4334;49.982;8.398;2023-04-03T09:53:30;7.70;99.90
8593;DHT22;4334;49.982;8.398;2023-04-03T09:55:58;10.90;99.90
8593;DHT22;4334;49.982;8.398;2023-04-03T09:58:27;7.90;99.90
8593;DHT22;4334;49.982;8.398;2023-04-03T10:00:57;8.50;99.90
8593;DHT22;4334;49.982;8.398;2023-04-03T10:03:27;9.20;99.90
8593;DHT22;4334;49.982;8.398;2023-04-03T10:05:55;9.40;99.90
8593;DHT22;4334;49.982;8.398;2023-04-03T10:08:27;9.30;99.90
8593;DHT22;4334;49.982;8.398;2023-04-03T10:11:09;8.40;99.90
8593;DHT22;4334;49.982;8.398;2023-04-03T10:13:49;9.20;99.90
8593;DHT22;4334;49.982;8.398;2023-04-03T10:16:20;9.10;99.90
8593;DHT22;4334;49.982;8.398;2023-04-03T10:18:54;8.20;99.90
8593;DHT22;4334;49.982;8.398;2023-04-03T10:21:32;8.50;99.90
8593;DHT22;4334;49.982;8.398;2023-04-03T10:24:08;8.40;99.90
8593;DHT22;4334;49.982;8.398;2023-04-03T10:26:41;7.80;99.90
8593;DHT22;4334;49.982;8.398;2023-04-03T10:29:20;8.40;99.90
8593;DHT22;4334;49.982;8.398;2023-04-03T10:31:55;8.70;99.90
8593;DHT22;4334;49.982;8.398;2023-04-03T10:34:25;9.10;99.90
8593;DHT22;4334;49.982;8.398;2023-04-03T10:37:01;9.00;99.90
8593;DHT22;4334;49.982;8.398;2023-04-03T10:39:35;8.60;99.90
8593;DHT22;4334;49.982;8.398;2023-04-03T10:42:10;9.30;99.90
8593;DHT22;4334;49.982;8.398;2023-04-03T10:44:51;8.70;99.90
8593;DHT22;4334;49.982;8.398;2023-04-03T10:47:24;9.10;99.90
8593;DHT22;4334;49.982;8.398;2023-04-03T10:49:56;8.90;99.90
8593;DHT22;4334;49.982;8.398;2023-04-03T10:52:30;8.60;99.90
8593;DHT22;4334;49.982;8.398;2023-04-03T10:55:13;7.70;99.90
8593;DHT22;4334;49.982;8.398;2023-04-03T10:57:43;8.20;99.90
8593;DHT22;4334;49.982;8.398;2023-04-03T11:00:16;8.40;99.90
8593;DHT22;4334;49.982;8.398;2023-04-03T11:02:51;8.90;99.90
8593;DHT22;4334;49.982;8.398;2023-04-03T11:05:28;9.90;99.90
8593;DHT22;4334;49.982;8.398;2023-04-03T11:08:02;10.10;99.90
8593;DHT22;4334;49.982;8.398;2023-04-03T11:10:35;9.30;99.90
8593;DHT22;4334;49.982;8.398;2023-04-03T11:13:11;9.10;99.90
8593;DHT22;4334;49.982;8.398;2023-04-03T11:15:39;8.90;99.90
8593;DHT22;4334;49.982;8.398;2023-04-03T11:18:11;9.90;99.90
8593;DHT22;4334;49.982;8.398;2023-04-03T11:20:44;9.80;99.90
8593;DHT22;4334;49.982;8.398;2023-04-03T11:23:16;9.20;99.90
8593;DHT22;4334;49.982;8.398;2023-04-03T11:25:49;8.50;99.90
8593;DHT22;4334;49.982;8.398;2023-04-03T11:28:16;8.80;99.90
8593;DHT22;4334;49.982;8.398;2023-04-03T11:30:47;9.20;99.90
8593;DHT22;4334;49.982;8.398;2023-04-03T11:33:28;9.90;99.90
8593;DHT22;4334;49.982;8.398;2023-04-03T11:35:59;10.20;99.40
8593;DHT22;4334;49.982;8.398;2023-04-03T11:38:31;11.00;98.80
8593;DHT22;4334;49.982;8.398;2023-04-03T11:41:02;10.50;97.20
8593;DHT22;4334;49.982;8.398;2023-04-03T11:43:30;9.60;99.00
8593;DHT22;4334;49.982;8.398;2023-04-03T11:45:59;9.50;99.90
8593;DHT22;4334;49.982;8.398;2023-04-03T11:48:48;9.50;99.40
8593;DHT22;4334;49.982;8.398;2023-04-03T11:51:42;11.90;99.90
8593;DHT22;4334;49.982;8.398;2023-04-03T11:54:45;9.80;99.00
8593;DHT22;4334;49.982;8.398;2023-04-03T11:57:45;10.70;96.90
8593;DHT22;4334;49.982;8.398;2023-04-03T12:00:47;10.40;97.10
8593;DHT22;4334;49.982;8.398;2023-04-03T12:10:18;9.80;96.70
8593;DHT22;4334;49.982;8.398;2023-04-03T12:13:12;10.30;95.40
8593;DHT22;4334;49.982;8.398;2023-04-03T12:15:48;10.50;95.60
8593;DHT22;4334;49.982;8.398;2023-04-03T12:18:53;12.60;97.70
8593;DHT22;4334;49.982;8.398;2023-04-03T12:21:23;9.10;96.40
8593;DHT22;4334;49.982;8.398;2023-04-03T12:24:03;10.00;93.90
8593;DHT22;4334;49.982;8.398;2023-04-03T12:26:38;13.40;94.30
8593;DHT22;4334;49.982;8.398;2023-04-03T12:29:15;10.50;93.50
8593;DHT22;4334;49.982;8.398;2023-04-03T12:31:55;11.40;92.80
8593;DHT22;4334;49.982;8.398;2023-04-03T12:34:56;10.70;92.00
8593;DHT22;4334;49.982;8.398;2023-04-03T12:37:43;11.50;92.20
8593;DHT22;4334;49.982;8.398;2023-04-03T12:40:20;11.80;90.80
8593;DHT22;4334;49.982;8.398;2023-04-03T12:43:13;10.90;90.70
8593;DHT22;4334;49.982;8.398;2023-04-03T12:45:46;10.30;90.60
8593;DHT22;4334;49.982;8.398;2023-04-03T12:48:16;10.60;89.90
8593;DHT22;4334;49.982;8.398;2023-04-03T12:50:46;10.80;90.40
8593;DHT22;4334;49.982;8.398;2023-04-03T12:53:16;10.40;90.50
8593;DHT22;4334;49.982;8.398;2023-04-03T12:55:43;11.50;90.90
8593;DHT22;4334;49.982;8.398;2023-04-03T12:58:16;11.40;89.00
8593;DHT22;4334;49.982;8.398;2023-04-03T13:00:43;10.90;90.10
8593;DHT22;4334;49.982;8.398;2023-04-03T13:03:23;11.00;87.80
8593;DHT22;4334;49.982;8.398;2023-04-03T13:06:00;14.70;90.80
8593;DHT22;4334;49.982;8.398;2023-04-03T13:08:27;14.60;91.00
8593;DHT22;4334;49.982;8.398;2023-04-03T13:10:57;11.40;88.20
8593;DHT22;4334;49.982;8.398;2023-04-03T13:13:25;10.70;87.50
8593;DHT22;4334;49.982;8.398;2023-04-03T13:15:53;10.70;88.60
8593;DHT22;4334;49.982;8.398;2023-04-03T13:18:26;10.80;88.40
8593;DHT22;4334;49.982;8.398;2023-04-03T13:20:58;10.70;86.00
8593;DHT22;4334;49.982;8.398;2023-04-03T13:23:26;10.40;87.50
8593;DHT22;4334;49.982;8.398;2023-04-03T13:25:54;10.20;86.80
8593;DHT22;4334;49.982;8.398;2023-04-03T13:28:23;10.30;88.00
8593;DHT22;4334;49.982;8.398;2023-04-03T13:31:03;11.50;88.30
8593;DHT22;4334;49.982;8.398;2023-04-03T13:33:33;10.90;87.00
8593;DHT22;4334;49.982;8.398;2023-04-03T13:36:05;10.20;86.80
8593;DHT22;4334;49.982;8.398;2023-04-03T13:38:34;9.80;89.00
8593;DHT22;4334;49.982;8.398;2023-04-03T13:41:04;10.20;88.60
8593;DHT22;4334;49.982;8.398;2023-04-03T13:43:33;10.30;88.50
8593;DHT22;4334;49.982;8.398;2023-04-03T13:46:22;10.60;88.40
8593;DHT22;4334;49.982;8.398;2023-04-03T13:48:52;10.60;87.40
8593;DHT22;4334;49.982;8.398;2023-04-03T13:51:22;10.60;86.50
8593;DHT22;4334;49.982;8.398;2023-04-03T13:53:52;10.00;87.50
8593;DHT22;4334;49.982;8.398;2023-04-03T13:56:25;10.10;88.50
8593;DHT22;4334;49.982;8.398;2023-04-03T13:58:55;10.60;88.00
8593;DHT22;4334;49.982;8.398;2023-04-03T14:01:25;10.70;87.00
8593;DHT22;4334;49.982;8.398;2023-04-03T14:03:55;11.00;88.30
8593;DHT22;4334;49.982;8.398;2023-04-03T14:06:22;13.10;88.10
8593;DHT22;4334;49.982;8.398;2023-04-03T14:08:49;11.60;85.50
8593;DHT22;4334;49.982;8.398;2023-04-03T14:11:19;11.30;85.90
8593;DHT22;4334;49.982;8.398;2023-04-03T14:13:48;11.40;86.40
8593;DHT22;4334;49.982;8.398;2023-04-03T14:16:19;11.80;86.70
8593;DHT22;4334;49.982;8.398;2023-04-03T14:18:51;11.20;86.30
8593;DHT22;4334;49.982;8.398;2023-04-03T14:21:20;10.30;87.20
8593;DHT22;4334;49.982;8.398;2023-04-03T14:23:48;10.80;89.50
8593;DHT22;4334;49.982;8.398;2023-04-03T14:26:18;11.10;86.50
8593;DHT22;4334;49.982;8.398;2023-04-03T14:28:48;11.10;84.60
8593;DHT22;4334;49.982;8.398;2023-04-03T14:31:17;11.50;85.30
8593;DHT22;4334;49.982;8.398;2023-04-03T14:33:44;11.10;84.90
8593;DHT22;4334;49.982;8.398;2023-04-03T14:36:14;10.80;85.40
8593;DHT22;4334;49.982;8.398;2023-04-03T14:38:42;10.70;85.20
8593;DHT22;4334;49.982;8.398;2023-04-03T14:41:11;10.60;85.30
8593;DHT22;4334;49.982;8.398;2023-04-03T14:43:39;10.60;86.50
8593;DHT22;4334;49.982;8.398;2023-04-03T14:46:13;10.80;84.60
8593;DHT22;4334;49.982;8.398;2023-04-03T14:48:40;13.50;87.40
8593;DHT22;4334;49.982;8.398;2023-04-03T14:51:08;12.20;85.30
8593;DHT22;4334;49.982;8.398;2023-04-03T14:53:37;10.70;84.40
8593;DHT22;4334;49.982;8.398;2023-04-03T14:56:10;11.10;84.50
8593;DHT22;4334;49.982;8.398;2023-04-03T14:58:37;10.90;83.50
8593;DHT22;4334;49.982;8.398;2023-04-03T15:01:04;11.50;84.30
8593;DHT22;4334;49.982;8.398;2023-04-03T15:03:31;11.60;81.20
8593;DHT22;4334;49.982;8.398;2023-04-03T15:05:58;11.30;82.10
8593;DHT22;4334;49.982;8.398;2023-04-03T15:08:27;11.50;81.20
8593;DHT22;4334;49.982;8.398;2023-04-03T15:10:57;12.00;83.90
8593;DHT22;4334;49.982;8.398;2023-04-03T15:13:24;11.10;82.90
8593;DHT22;4334;49.982;8.398;2023-04-03T15:15:51;11.40;82.80
8593;DHT22;4334;49.982;8.398;2023-04-03T15:18:20;11.60;82.50
8593;DHT22;4334;49.982;8.398;2023-04-03T15:20:48;11.80;80.90
8593;DHT22;4334;49.982;8.398;2023-04-03T15:23:15;11.10;80.00
8593;DHT22;4334;49.982;8.398;2023-04-03T15:25:43;11.50;80.40
8593;DHT22;4334;49.982;8.398;2023-04-03T15:28:17;11.20;80.40
8593;DHT22;4334;49.982;8.398;2023-04-03T15:30:45;14.70;83.50
8593;DHT22;4334;49.982;8.398;2023-04-03T15:33:12;11.50;82.60
8593;DHT22;4334;49.982;8.398;2023-04-03T15:35:38;11.60;81.20
8593;DHT22;4334;49.982;8.398;2023-04-03T15:38:05;11.60;81.90
8593;DHT22;4334;49.982;8.398;2023-04-03T15:40:32;11.90;80.60
8593;DHT22;4334;49.982;8.398;2023-04-03T15:42:59;11.20;81.10
8593;DHT22;4334;49.982;8.398;2023-04-03T15:45:29;13.60;83.40
8593;DHT22;4334;49.982;8.398;2023-04-03T15:47:56;11.10;82.00
8593;DHT22;4334;49.982;8.398;2023-04-03T15:50:23;11.50;79.70
8593;DHT22;4334;49.982;8.398;2023-04-03T15:52:50;11.00;80.30
8593;DHT22;4334;49.982;8.398;2023-04-03T15:55:20;11.00;80.90
8593;DHT22;4334;49.982;8.398;2023-04-03T15:57:47;11.30;80.10
8593;DHT22;4334;49.982;8.398;2023-04-03T16:00:15;11.50;81.10
8593;DHT22;4334;49.982;8.398;2023-04-03T16:02:44;12.20;80.50
8593;DHT22;4334;49.982;8.398;2023-04-03T16:05:12;11.30;78.20
8593;DHT22;4334;49.982;8.398;2023-04-03T16:07:39;11.20;78.70
8593;DHT22;4334;49.982;8.398;2023-04-03T16:10:08;11.30;78.50
8593;DHT22;4334;49.982;8.398;2023-04-03T16:12:35;10.70;78.70
8593;DHT22;4334;49.982;8.398;2023-04-03T16:15:03;11.10;78.30
8593;DHT22;4334;49.982;8.398;2023-04-03T16:17:32;11.30;78.40
8593;DHT22;4334;49.982;8.398;2023-04-03T16:20:01;11.50;78.10
8593;DHT22;4334;49.982;8.398;2023-04-03T16:22:29;11.80;78.80
8593;DHT22;4334;49.982;8.398;2023-04-03T16:24:56;11.70;77.80
8593;DHT22;4334;49.982;8.398;2023-04-03T16:27:23;12.00;77.80
8593;DHT22;4334;49.982;8.398;2023-04-03T16:29:53;11.90;78.70
8593;DHT22;4334;49.982;8.398;2023-04-03T16:32:20;12.00;78.10
8593;DHT22;4334;49.982;8.398;2023-04-03T16:34:47;11.60;77.30
8593;DHT22;4334;49.982;8.398;2023-04-03T16:37:15;10.80;76.90
8593;DHT22;4334;49.982;8.398;2023-04-03T16:39:42;11.30;78.20